sensor_id;sensor_type;location;lat;lon;timestamp;temperature;humidity
292;DHT22;23311;48.776;9.162;2022-12-05T00:01:49;3.30;95.50
292;DHT22;23311;48.776;9.162;2022-12-05T00:04:17;3.30;95.50
292;DHT22;23311;48.776;9.162;2022-12-05T00:06:47;3.30;95.50
292;DHT22;23311;48.776;9.162;2022-12-05T00:09:15;3.40;95.50
292;DHT22;23311;48.776;9.162;2022-12-05T00:11:44;3.40;95.50
292;DHT22;23311;48.776;9.162;2022-12-05T00:14:13;3.40;95.50
292;DHT22;23311;48.776;9.162;2022-12-05T00:16:42;3.30;95.50
292;DHT22;23311;48.776;9.162;2022-12-05T00:19:12;3.40;95.50
292;DHT22;23311;48.776;9.162;2022-12-05T00:21:41;3.30;95.50
292;DHT22;23311;48.776;9.162;2022-12-05T00:24:13;3.20;95.50
292;DHT22;23311;48.776;9.162;2022-12-05T00:26:42;3.20;95.50
292;DHT22;23311;48.776;9.162;2022-12-05T00:29:10;3.30;95.50
292;DHT22;23311;48.776;9.162;2022-12-05T00:31:38;3.20;95.50
292;DHT22;23311;48.776;9.162;2022-12-05T00:34:06;3.20;95.50
292;DHT22;23311;48.776;9.162;2022-12-05T00:36:35;3.20;95.50
292;DHT22;23311;48.776;9.162;2022-12-05T00:39:07;3.20;95.50
292;DHT22;23311;48.776;9.162;2022-12-05T00:41:37;3.30;95.50
292;DHT22;23311;48.776;9.162;2022-12-05T00:44:05;3.40;95.50
292;DHT22;23311;48.776;9.162;2022-12-05T00:46:34;3.40;95.50
292;DHT22;23311;48.776;9.162;2022-12-05T00:49:04;3.30;95.50
292;DHT22;23311;48.776;9.162;2022-12-05T00:51:34;3.20;95.50
292;DHT22;23311;48.776;9.162;2022-12-05T00:54:05;3.20;95.50
292;DHT22;23311;48.776;9.162;2022-12-05T00:56:33;3.20;95.50
292;DHT22;23311;48.776;9.162;2022-12-05T00:59:03;3.20;95.50
292;DHT22;23311;48.776;9.162;2022-12-05T01:01:34;3.20;95.50
292;DHT22;23311;48.776;9.162;2022-12-05T01:04:04;3.20;95.50
292;DHT22;23311;48.776;9.162;2022-12-05T01:06:33;3.30;95.50
292;DHT22;23311;48.776;9.162;2022-12-05T01:09:02;3.30;95.50
292;DHT22;23311;48.776;9.162;2022-12-05T01:11:31;3.30;95.50
292;DHT22;23311;48.776;9.162;2022-12-05T01:14:08;3.30;95.50
292;DHT22;23311;48.776;9.162;2022-12-05T01:16:39;3.40;95.50
292;DHT22;23311;48.776;9.162;2022-12-05T01:19:11;3.30;95.50
292;DHT22;23311;48.776;9.162;2022-12-05T01:21:39;3.30;95.50
292;DHT22;23311;48.776;9.162;2022-12-05T01:24:08;3.40;95.50
292;DHT22;23311;48.776;9.162;2022-12-05T01:26:37;3.30;95.50
292;DHT22;23311;48.776;9.162;2022-12-05T01:29:05;3.40;95.50
292;DHT22;23311;48.776;9.162;2022-12-05T01:31:35;3.40;95.50
292;DHT22;23311;48.776;9.162;2022-12-05T01:34:06;3.40;95.50
292;DHT22;23311;48.776;9.162;2022-12-05T01:36:35;3.30;95.50
292;DHT22;23311;48.776;9.162;2022-12-05T01:39:05;3.30;95.50
292;DHT22;23311;48.776;9.162;2022-12-05T01:41:35;3.30;95.50
292;DHT22;23311;48.776;9.162;2022-12-05T01:44:07;3.20;95.50
292;DHT22;23311;48.776;9.162;2022-12-05T01:46:38;3.20;95.50
292;DHT22;23311;48.776;9.162;2022-12-05T01:49:09;3.20;95.50
292;DHT22;23311;48.776;9.162;2022-12-05T01:51:42;3.20;95.50
292;DHT22;23311;48.776;9.162;2022-12-05T01:54:13;3.20;95.50
292;DHT22;23311;48.776;9.162;2022-12-05T01:56:45;3.20;95.50
292;DHT22;23311;48.776;9.162;2022-12-05T01:59:15;3.30;95.50
292;DHT22;23311;48.776;9.162;2022-12-05T02:01:45;3.30;95.50
292;DHT22;23311;48.776;9.162;2022-12-05T02:04:13;3.30;95.50
292;DHT22;23311;48.776;9.162;2022-12-05T02:06:42;3.30;95.50
292;DHT22;23311;48.776;9.162;2022-12-05T02:09:10;3.30;95.50
292;DHT22;23311;48.776;9.162;2022-12-05T02:11:45;3.30;95.50
292;DHT22;23311;48.776;9.162;2022-12-05T02:14:23;3.30;95.50
292;DHT22;23311;48.776;9.162;2022-12-05T02:17:00;3.20;95.50
292;DHT22;23311;48.776;9.162;2022-12-05T02:28:50;3.20;95.50
292;DHT22;23311;48.776;9.162;2022-12-05T02:31:26;3.10;95.50
292;DHT22;23311;48.776;9.162;2022-12-05T02:34:05;3.10;95.50
292;DHT22;23311;48.776;9.162;2022-12-05T02:36:39;3.20;95.50
292;DHT22;23311;48.776;9.162;2022-12-05T02:39:13;3.30;95.50
292;DHT22;23311;48.776;9.162;2022-12-05T02:41:48;3.30;95.50
292;DHT22;23311;48.776;9.162;2022-12-05T02:44:21;3.30;95.50
292;DHT22;23311;48.776;9.162;2022-12-05T02:46:54;3.30;95.50
292;DHT22;23311;48.776;9.162;2022-12-05T02:49:27;3.30;95.50
292;DHT22;23311;48.776;9.162;2022-12-05T02:51:58;3.30;95.50
292;DHT22;23311;48.776;9.162;2022-12-05T02:54:30;3.30;95.50
292;DHT22;23311;48.776;9.162;2022-12-05T02:57:00;3.30;95.50
292;DHT22;23311;48.776;9.162;2022-12-05T02:59:28;3.30;95.50
292;DHT22;23311;48.776;9.162;2022-12-05T03:01:57;3.30;95.50
292;DHT22;23311;48.776;9.162;2022-12-05T03:04:26;3.30;95.50
292;DHT22;23311;48.776;9.162;2022-12-05T03:06:58;3.40;95.50
292;DHT22;23311;48.776;9.162;2022-12-05T03:09:29;3.40;95.50
292;DHT22;23311;48.776;9.162;2022-12-05T03:12:07;3.40;95.50
292;DHT22;23311;48.776;9.162;2022-12-05T03:14:42;3.40;95.50
292;DHT22;23311;48.776;9.162;2022-12-05T03:17:17;3.40;95.50
292;DHT22;23311;48.776;9.162;2022-12-05T03:19:51;3.40;95.50
292;DHT22;23311;48.776;9.162;2022-12-05T03:22:26;3.30;95.50
292;DHT22;23311;48.776;9.162;2022-12-05T03:24:57;3.30;95.50
292;DHT22;23311;48.776;9.162;2022-12-05T03:27:28;3.20;95.50
292;DHT22;23311;48.776;9.162;2022-12-05T03:30:02;3.20;95.50
292;DHT22;23311;48.776;9.162;2022-12-05T03:32:36;3.20;95.50
292;DHT22;23311;48.776;9.162;2022-12-05T03:35:13;3.20;95.50
292;DHT22;23311;48.776;9.162;2022-12-05T03:37:47;3.30;95.50
292;DHT22;23311;48.776;9.162;2022-12-05T03:40:25;3.40;95.50
292;DHT22;23311;48.776;9.162;2022-12-05T03:42:59;3.40;95.50
292;DHT22;23311;48.776;9.162;2022-12-05T03:45:34;3.50;95.50
292;DHT22;23311;48.776;9.162;2022-12-05T03:48:13;3.50;95.50
292;DHT22;23311;48.776;9.162;2022-12-05T03:50:44;3.50;95.50
292;DHT22;23311;48.776;9.162;2022-12-05T03:53:17;3.60;95.50
292;DHT22;23311;48.776;9.162;2022-12-05T03:55:52;3.60;95.50
292;DHT22;23311;48.776;9.162;2022-12-05T03:58:26;3.60;95.50
292;DHT22;23311;48.776;9.162;2022-12-05T04:00:56;3.50;95.50
292;DHT22;23311;48.776;9.162;2022-12-05T04:03:32;3.50;95.50
292;DHT22;23311;48.776;9.162;2022-12-05T04:06:11;3.50;95.50
292;DHT22;23311;48.776;9.162;2022-12-05T04:08:43;3.60;95.50
292;DHT22;23311;48.776;9.162;2022-12-05T04:11:17;3.60;95.50
292;DHT22;23311;48.776;9.162;2022-12-05T04:13:48;3.50;95.50
292;DHT22;23311;48.776;9.162;2022-12-05T04:16:21;3.50;95.50
292;DHT22;23311;48.776;9.162;2022-12-05T04:19:15;3.50;95.50
292;DHT22;23311;48.776;9.162;2022-12-05T04:21:47;3.40;95.50
292;DHT22;23311;48.776;9.162;2022-12-05T04:24:18;3.50;95.50
292;DHT22;23311;48.776;9.162;2022-12-05T04:27:12;3.50;95.50
292;DHT22;23311;48.776;9.162;2022-12-05T04:29:52;3.60;95.50
292;DHT22;23311;48.776;9.162;2022-12-05T04:32:25;3.60;95.50
292;DHT22;23311;48.776;9.162;2022-12-05T04:35:02;3.70;95.50
292;DHT22;23311;48.776;9.162;2022-12-05T04:37:35;3.60;95.50
292;DHT22;23311;48.776;9.162;2022-12-05T04:40:10;3.70;95.50
292;DHT22;23311;48.776;9.162;2022-12-05T04:42:40;3.70;95.50
292;DHT22;23311;48.776;9.162;2022-12-05T04:45:11;3.70;95.50
292;DHT22;23311;48.776;9.162;2022-12-05T04:47:43;3.70;95.50
292;DHT22;23311;48.776;9.162;2022-12-05T04:50:15;3.60;95.50
292;DHT22;23311;48.776;9.162;2022-12-05T04:52:47;3.60;95.50
292;DHT22;23311;48.776;9.162;2022-12-05T04:55:19;3.60;95.50
292;DHT22;23311;48.776;9.162;2022-12-05T04:57:57;3.60;95.50
292;DHT22;23311;48.776;9.162;2022-12-05T05:00:29;3.60;95.50
292;DHT22;23311;48.776;9.162;2022-12-05T05:03:04;3.60;95.50
292;DHT22;23311;48.776;9.162;2022-12-05T05:05:36;3.70;95.50
292;DHT22;23311;48.776;9.162;2022-12-05T05:08:16;3.70;95.50
292;DHT22;23311;48.776;9.162;2022-12-05T05:10:51;3.70;95.50
292;DHT22;23311;48.776;9.162;2022-12-05T05:13:21;3.70;95.50
292;DHT22;23311;48.776;9.162;2022-12-05T05:15:50;3.60;95.50
292;DHT22;23311;48.776;9.162;2022-12-05T05:18:18;3.70;95.50
292;DHT22;23311;48.776;9.162;2022-12-05T05:20:47;3.70;95.50
292;DHT22;23311;48.776;9.162;2022-12-05T05:23:15;3.80;95.50
292;DHT22;23311;48.776;9.162;2022-12-05T05:25:43;3.80;95.50
292;DHT22;23311;48.776;9.162;2022-12-05T05:28:11;3.80;95.50
292;DHT22;23311;48.776;9.162;2022-12-05T05:30:42;3.80;95.50
292;DHT22;23311;48.776;9.162;2022-12-05T05:33:11;3.90;95.50
292;DHT22;23311;48.776;9.162;2022-12-05T05:35:39;4.00;95.50
292;DHT22;23311;48.776;9.162;2022-12-05T05:38:08;4.00;95.50
292;DHT22;23311;48.776;9.162;2022-12-05T05:40:36;4.00;95.50
292;DHT22;23311;48.776;9.162;2022-12-05T05:43:04;4.00;95.50
292;DHT22;23311;48.776;9.162;2022-12-05T05:45:32;4.00;95.50
292;DHT22;23311;48.776;9.162;2022-12-05T05:48:00;4.00;95.50
292;DHT22;23311;48.776;9.162;2022-12-05T05:50:28;4.00;95.50
292;DHT22;23311;48.776;9.162;2022-12-05T05:52:56;4.00;95.50
292;DHT22;23311;48.776;9.162;2022-12-05T05:55:26;4.10;95.50
292;DHT22;23311;48.776;9.162;2022-12-05T05:57:54;4.10;95.50
292;DHT22;23311;48.776;9.162;2022-12-05T06:00:22;4.20;95.50
292;DHT22;23311;48.776;9.162;2022-12-05T06:02:50;4.10;95.50
292;DHT22;23311;48.776;9.162;2022-12-05T06:05:18;4.10;95.50
292;DHT22;23311;48.776;9.162;2022-12-05T06:07:46;4.00;95.50
292;DHT22;23311;48.776;9.162;2022-12-05T06:10:14;4.00;95.50
292;DHT22;23311;48.776;9.162;2022-12-05T06:12:44;3.90;95.50
292;DHT22;23311;48.776;9.162;2022-12-05T06:15:12;3.90;95.50
292;DHT22;23311;48.776;9.162;2022-12-05T06:17:43;3.90;95.50
292;DHT22;23311;48.776;9.162;2022-12-05T06:20:11;3.90;95.50
292;DHT22;23311;48.776;9.162;2022-12-05T06:22:39;4.00;95.50
292;DHT22;23311;48.776;9.162;2022-12-05T06:25:08;3.90;95.50
292;DHT22;23311;48.776;9.162;2022-12-05T06:27:43;3.90;95.50
292;DHT22;23311;48.776;9.162;2022-12-05T06:30:16;3.90;95.50
292;DHT22;23311;48.776;9.162;2022-12-05T06:32:44;3.90;95.50
292;DHT22;23311;48.776;9.162;2022-12-05T06:35:12;4.10;95.50
292;DHT22;23311;48.776;9.162;2022-12-05T06:37:42;4.20;95.50
292;DHT22;23311;48.776;9.162;2022-12-05T06:40:10;4.20;95.50
292;DHT22;23311;48.776;9.162;2022-12-05T06:42:39;4.20;95.50
292;DHT22;23311;48.776;9.162;2022-12-05T06:45:10;4.20;95.50
292;DHT22;23311;48.776;9.162;2022-12-05T06:47:38;4.40;95.50
292;DHT22;23311;48.776;9.162;2022-12-05T06:50:07;4.40;95.50
292;DHT22;23311;48.776;9.162;2022-12-05T06:52:35;4.30;95.50
292;DHT22;23311;48.776;9.162;2022-12-05T06:55:04;4.30;95.50
292;DHT22;23311;48.776;9.162;2022-12-05T06:57:33;4.20;95.50
292;DHT22;23311;48.776;9.162;2022-12-05T07:00:02;4.20;95.50
292;DHT22;23311;48.776;9.162;2022-12-05T07:02:45;4.20;95.50
292;DHT22;23311;48.776;9.162;2022-12-05T07:05:14;4.20;95.50
292;DHT22;23311;48.776;9.162;2022-12-05T07:07:42;4.20;95.50
292;DHT22;23311;48.776;9.162;2022-12-05T07:10:10;4.20;95.50
292;DHT22;23311;48.776;9.162;2022-12-05T07:12:38;4.20;95.50
292;DHT22;23311;48.776;9.162;2022-12-05T07:15:07;4.30;95.50
292;DHT22;23311;48.776;9.162;2022-12-05T07:17:35;4.20;95.50
292;DHT22;23311;48.776;9.162;2022-12-05T07:20:07;4.30;95.50
292;DHT22;23311;48.776;9.162;2022-12-05T07:22:36;4.20;95.50
292;DHT22;23311;48.776;9.162;2022-12-05T07:25:05;4.30;95.50
292;DHT22;23311;48.776;9.162;2022-12-05T07:27:33;4.20;95.50
292;DHT22;23311;48.776;9.162;2022-12-05T07:30:01;4.20;95.50
292;DHT22;23311;48.776;9.162;2022-12-05T07:32:31;4.30;95.50
292;DHT22;23311;48.776;9.162;2022-12-05T07:34:59;4.40;95.50
292;DHT22;23311;48.776;9.162;2022-12-05T07:37:29;4.50;95.50
292;DHT22;23311;48.776;9.162;2022-12-05T07:39:57;4.50;95.50
292;DHT22;23311;48.776;9.162;2022-12-05T07:42:25;4.50;95.50
292;DHT22;23311;48.776;9.162;2022-12-05T07:44:53;4.60;95.50
292;DHT22;23311;48.776;9.162;2022-12-05T07:47:21;4.70;95.50
292;DHT22;23311;48.776;9.162;2022-12-05T07:49:50;4.70;95.50
292;DHT22;23311;48.776;9.162;2022-12-05T07:52:18;4.80;95.50
292;DHT22;23311;48.776;9.162;2022-12-05T07:54:47;4.80;95.50
292;DHT22;23311;48.776;9.162;2022-12-05T07:57:15;4.80;95.50
292;DHT22;23311;48.776;9.162;2022-12-05T07:59:43;4.80;95.50
292;DHT22;23311;48.776;9.162;2022-12-05T08:02:11;4.90;95.50
292;DHT22;23311;48.776;9.162;2022-12-05T08:04:40;5.00;95.50
292;DHT22;23311;48.776;9.162;2022-12-05T08:07:11;5.10;95.50
292;DHT22;23311;48.776;9.162;2022-12-05T08:09:39;5.10;95.50
292;DHT22;23311;48.776;9.162;2022-12-05T08:12:08;5.20;95.50
292;DHT22;23311;48.776;9.162;2022-12-05T08:14:37;5.30;95.50
292;DHT22;23311;48.776;9.162;2022-12-05T08:17:05;5.30;95.50
292;DHT22;23311;48.776;9.162;2022-12-05T08:19:33;5.20;95.50
292;DHT22;23311;48.776;9.162;2022-12-05T08:22:01;5.20;95.50
292;DHT22;23311;48.776;9.162;2022-12-05T08:24:29;5.20;95.50
292;DHT22;23311;48.776;9.162;2022-12-05T08:26:57;5.30;95.50
292;DHT22;23311;48.776;9.162;2022-12-05T08:29:26;5.30;95.50
292;DHT22;23311;48.776;9.162;2022-12-05T08:31:54;5.40;95.50
292;DHT22;23311;48.776;9.162;2022-12-05T08:34:22;5.40;95.50
292;DHT22;23311;48.776;9.162;2022-12-05T08:36:50;5.50;95.50
292;DHT22;23311;48.776;9.162;2022-12-05T08:39:18;5.40;95.50
292;DHT22;23311;48.776;9.162;2022-12-05T08:41:47;5.50;95.50
292;DHT22;23311;48.776;9.162;2022-12-05T08:44:16;5.40;95.50
292;DHT22;23311;48.776;9.162;2022-12-05T08:46:48;5.40;95.50
292;DHT22;23311;48.776;9.162;2022-12-05T08:49:17;5.30;95.50
292;DHT22;23311;48.776;9.162;2022-12-05T08:51:45;5.30;95.50
292;DHT22;23311;48.776;9.162;2022-12-05T08:54:15;5.30;95.50
292;DHT22;23311;48.776;9.162;2022-12-05T08:56:43;5.40;95.50
292;DHT22;23311;48.776;9.162;2022-12-05T08:59:11;5.50;95.50
292;DHT22;23311;48.776;9.162;2022-12-05T09:01:39;5.30;95.50
292;DHT22;23311;48.776;9.162;2022-12-05T09:04:09;5.40;95.50
292;DHT22;23311;48.776;9.162;2022-12-05T09:06:39;5.50;95.50
292;DHT22;23311;48.776;9.162;2022-12-05T09:09:08;5.60;95.50
292;DHT22;23311;48.776;9.162;2022-12-05T09:11:39;5.70;95.50
292;DHT22;23311;48.776;9.162;2022-12-05T09:14:11;5.80;95.50
292;DHT22;23311;48.776;9.162;2022-12-05T09:16:42;5.90;95.50
292;DHT22;23311;48.776;9.162;2022-12-05T09:19:13;5.90;95.50
292;DHT22;23311;48.776;9.162;2022-12-05T09:21:42;5.90;95.50
292;DHT22;23311;48.776;9.162;2022-12-05T09:24:11;6.00;95.50
292;DHT22;23311;48.776;9.162;2022-12-05T09:26:40;6.10;95.50
292;DHT22;23311;48.776;9.162;2022-12-05T09:29:09;6.20;95.50
292;DHT22;23311;48.776;9.162;2022-12-05T09:31:43;6.30;95.50
292;DHT22;23311;48.776;9.162;2022-12-05T09:34:13;6.30;95.50
292;DHT22;23311;48.776;9.162;2022-12-05T09:36:43;6.50;95.50
292;DHT22;23311;48.776;9.162;2022-12-05T09:39:11;6.50;95.50
292;DHT22;23311;48.776;9.162;2022-12-05T09:41:53;6.50;95.50
292;DHT22;23311;48.776;9.162;2022-12-05T09:44:50;6.50;95.50
292;DHT22;23311;48.776;9.162;2022-12-05T09:47:31;6.60;95.50
292;DHT22;23311;48.776;9.162;2022-12-05T09:50:14;6.50;95.50
292;DHT22;23311;48.776;9.162;2022-12-05T09:52:52;6.50;95.50
292;DHT22;23311;48.776;9.162;2022-12-05T09:55:21;6.50;95.50
292;DHT22;23311;48.776;9.162;2022-12-05T09:57:51;6.30;95.50
292;DHT22;23311;48.776;9.162;2022-12-05T10:00:21;6.30;95.50
292;DHT22;23311;48.776;9.162;2022-12-05T10:02:55;6.30;95.50
292;DHT22;23311;48.776;9.162;2022-12-05T10:05:29;6.20;95.50
292;DHT22;23311;48.776;9.162;2022-12-05T10:08:10;6.30;95.50
292;DHT22;23311;48.776;9.162;2022-12-05T10:10:47;6.30;95.50
292;DHT22;23311;48.776;9.162;2022-12-05T10:13:41;6.40;95.50
292;DHT22;23311;48.776;9.162;2022-12-05T10:16:16;6.40;95.50
292;DHT22;23311;48.776;9.162;2022-12-05T10:18:48;6.40;95.50
292;DHT22;23311;48.776;9.162;2022-12-05T10:21:22;6.50;95.50
292;DHT22;23311;48.776;9.162;2022-12-05T10:23:55;6.70;95.50
292;DHT22;23311;48.776;9.162;2022-12-05T10:26:28;6.70;95.50
292;DHT22;23311;48.776;9.162;2022-12-05T10:29:02;6.70;95.50
292;DHT22;23311;48.776;9.162;2022-12-05T10:31:36;6.70;95.50
292;DHT22;23311;48.776;9.162;2022-12-05T10:34:11;6.80;95.50
292;DHT22;23311;48.776;9.162;2022-12-05T10:36:51;7.00;95.50
292;DHT22;23311;48.776;9.162;2022-12-05T10:39:21;7.20;95.50
292;DHT22;23311;48.776;9.162;2022-12-05T10:41:49;7.60;95.50
292;DHT22;23311;48.776;9.162;2022-12-05T10:44:17;7.60;95.50
292;DHT22;23311;48.776;9.162;2022-12-05T10:46:46;7.50;95.50
292;DHT22;23311;48.776;9.162;2022-12-05T10:49:14;7.60;95.50
292;DHT22;23311;48.776;9.162;2022-12-05T10:51:44;7.80;95.50
292;DHT22;23311;48.776;9.162;2022-12-05T10:54:16;8.10;95.50
292;DHT22;23311;48.776;9.162;2022-12-05T10:56:46;8.40;95.50
292;DHT22;23311;48.776;9.162;2022-12-05T10:59:16;8.50;95.50
292;DHT22;23311;48.776;9.162;2022-12-05T11:01:48;8.60;95.50
292;DHT22;23311;48.776;9.162;2022-12-05T11:04:26;8.50;95.50
292;DHT22;23311;48.776;9.162;2022-12-05T11:06:58;8.50;95.50
292;DHT22;23311;48.776;9.162;2022-12-05T11:09:28;8.80;95.50
292;DHT22;23311;48.776;9.162;2022-12-05T11:12:13;8.60;95.50
292;DHT22;23311;48.776;9.162;2022-12-05T11:14:57;8.60;95.50
292;DHT22;23311;48.776;9.162;2022-12-05T11:17:30;8.20;95.50
292;DHT22;23311;48.776;9.162;2022-12-05T11:19:59;7.80;95.50
292;DHT22;23311;48.776;9.162;2022-12-05T11:22:33;8.00;95.50
292;DHT22;23311;48.776;9.162;2022-12-05T11:25:23;8.20;95.50
292;DHT22;23311;48.776;9.162;2022-12-05T11:27:51;8.10;95.50
292;DHT22;23311;48.776;9.162;2022-12-05T11:30:28;8.10;95.50
292;DHT22;23311;48.776;9.162;2022-12-05T11:33:10;7.90;95.50
292;DHT22;23311;48.776;9.162;2022-12-05T11:35:39;8.00;95.50
292;DHT22;23311;48.776;9.162;2022-12-05T11:38:10;8.10;95.50
292;DHT22;23311;48.776;9.162;2022-12-05T11:40:45;8.20;95.50
292;DHT22;23311;48.776;9.162;2022-12-05T11:43:30;8.30;95.50
292;DHT22;23311;48.776;9.162;2022-12-05T11:46:08;8.50;95.50
292;DHT22;23311;48.776;9.162;2022-12-05T11:48:50;8.40;95.50
292;DHT22;23311;48.776;9.162;2022-12-05T11:51:31;8.70;95.50
292;DHT22;23311;48.776;9.162;2022-12-05T11:54:27;8.90;95.50
292;DHT22;23311;48.776;9.162;2022-12-05T11:57:25;9.20;95.50
292;DHT22;23311;48.776;9.162;2022-12-05T12:00:14;9.50;95.50
292;DHT22;23311;48.776;9.162;2022-12-05T12:03:03;9.40;95.50
292;DHT22;23311;48.776;9.162;2022-12-05T12:05:44;9.40;95.50
292;DHT22;23311;48.776;9.162;2022-12-05T12:08:22;9.20;95.50
292;DHT22;23311;48.776;9.162;2022-12-05T12:11:00;8.80;95.50
292;DHT22;23311;48.776;9.162;2022-12-05T12:13:46;8.60;95.50
292;DHT22;23311;48.776;9.162;2022-12-05T12:16:24;8.40;95.50
292;DHT22;23311;48.776;9.162;2022-12-05T12:19:18;8.40;95.50
292;DHT22;23311;48.776;9.162;2022-12-05T12:22:01;8.50;95.50
292;DHT22;23311;48.776;9.162;2022-12-05T12:24:38;8.10;95.50
292;DHT22;23311;48.776;9.162;2022-12-05T12:27:19;8.10;95.50
292;DHT22;23311;48.776;9.162;2022-12-05T12:29:57;8.10;95.50
292;DHT22;23311;48.776;9.162;2022-12-05T12:32:38;8.00;95.50
292;DHT22;23311;48.776;9.162;2022-12-05T12:35:21;8.00;95.50
292;DHT22;23311;48.776;9.162;2022-12-05T12:38:02;8.10;95.50
292;DHT22;23311;48.776;9.162;2022-12-05T12:40:41;8.30;95.50
292;DHT22;23311;48.776;9.162;2022-12-05T12:43:21;8.20;95.50
292;DHT22;23311;48.776;9.162;2022-12-05T12:46:15;8.20;95.50
292;DHT22;23311;48.776;9.162;2022-12-05T12:49:04;8.50;95.50
292;DHT22;23311;48.776;9.162;2022-12-05T12:51:42;8.50;95.50
292;DHT22;23311;48.776;9.162;2022-12-05T12:54:24;8.10;95.50
292;DHT22;23311;48.776;9.162;2022-12-05T12:57:23;8.20;95.50
292;DHT22;23311;48.776;9.162;2022-12-05T13:00:19;8.40;95.50
292;DHT22;23311;48.776;9.162;2022-12-05T13:02:52;8.40;95.50
292;DHT22;23311;48.776;9.162;2022-12-05T13:05:26;8.40;95.50
292;DHT22;23311;48.776;9.162;2022-12-05T13:08:00;8.50;95.50
292;DHT22;23311;48.776;9.162;2022-12-05T13:10:34;8.70;95.50
292;DHT22;23311;48.776;9.162;2022-12-05T13:13:05;8.70;95.50
292;DHT22;23311;48.776;9.162;2022-12-05T13:15:39;8.50;95.50
292;DHT22;23311;48.776;9.162;2022-12-05T13:18:15;8.70;95.50
292;DHT22;23311;48.776;9.162;2022-12-05T13:20:45;8.80;95.50
292;DHT22;23311;48.776;9.162;2022-12-05T13:23:17;8.70;95.50
292;DHT22;23311;48.776;9.162;2022-12-05T13:25:46;8.70;95.50
292;DHT22;23311;48.776;9.162;2022-12-05T13:28:24;8.60;95.50
292;DHT22;23311;48.776;9.162;2022-12-05T13:30:55;8.70;95.50
292;DHT22;23311;48.776;9.162;2022-12-05T13:33:34;8.70;95.50
292;DHT22;23311;48.776;9.162;2022-12-05T13:36:06;8.60;95.50
292;DHT22;23311;48.776;9.162;2022-12-05T13:39:00;8.50;95.50
292;DHT22;23311;48.776;9.162;2022-12-05T13:41:48;8.50;95.50
292;DHT22;23311;48.776;9.162;2022-12-05T13:44:38;8.40;95.50
292;DHT22;23311;48.776;9.162;2022-12-05T13:47:23;8.30;95.50
292;DHT22;23311;48.776;9.162;2022-12-05T13:49:54;8.20;95.50
292;DHT22;23311;48.776;9.162;2022-12-05T13:52:28;8.00;95.50
292;DHT22;23311;48.776;9.162;2022-12-05T13:55:00;7.80;95.50
292;DHT22;23311;48.776;9.162;2022-12-05T13:57:51;7.80;95.50
292;DHT22;23311;48.776;9.162;2022-12-05T14:00:23;7.80;95.50
292;DHT22;23311;48.776;9.162;2022-12-05T14:02:55;7.80;95.50
292;DHT22;23311;48.776;9.162;2022-12-05T14:05:48;7.80;95.50
292;DHT22;23311;48.776;9.162;2022-12-05T14:11:23;7.80;95.50
292;DHT22;23311;48.776;9.162;2022-12-05T14:13:51;7.80;95.50
292;DHT22;23311;48.776;9.162;2022-12-05T14:16:45;7.80;95.50
292;DHT22;23311;48.776;9.162;2022-12-05T14:19:52;7.50;95.50
292;DHT22;23311;48.776;9.162;2022-12-05T14:25:47;7.20;95.50
292;DHT22;23311;48.776;9.162;2022-12-05T14:28:37;7.00;95.50
292;DHT22;23311;48.776;9.162;2022-12-05T14:31:25;7.10;95.50
292;DHT22;23311;48.776;9.162;2022-12-05T14:34:08;7.10;95.50
292;DHT22;23311;48.776;9.162;2022-12-05T14:36:57;7.10;95.50
292;DHT22;23311;48.776;9.162;2022-12-05T14:39:43;7.00;95.50
292;DHT22;23311;48.776;9.162;2022-12-05T14:42:24;6.80;95.50
292;DHT22;23311;48.776;9.162;2022-12-05T14:44:56;6.80;95.50
292;DHT22;23311;48.776;9.162;2022-12-05T14:47:28;6.80;95.50
292;DHT22;23311;48.776;9.162;2022-12-05T14:49:59;6.70;95.50
292;DHT22;23311;48.776;9.162;2022-12-05T14:52:33;6.70;95.50
292;DHT22;23311;48.776;9.162;2022-12-05T14:55:05;6.70;95.50
292;DHT22;23311;48.776;9.162;2022-12-05T14:57:41;6.70;95.50
292;DHT22;23311;48.776;9.162;2022-12-05T15:00:18;6.70;95.50
292;DHT22;23311;48.776;9.162;2022-12-05T15:02:49;6.70;95.50
292;DHT22;23311;48.776;9.162;2022-12-05T15:05:22;6.70;95.50
292;DHT22;23311;48.776;9.162;2022-12-05T15:07:54;6.60;95.50
292;DHT22;23311;48.776;9.162;2022-12-05T15:10:27;6.60;95.50
292;DHT22;23311;48.776;9.162;2022-12-05T15:12:57;6.50;95.50
292;DHT22;23311;48.776;9.162;2022-12-05T15:15:32;6.50;95.50
292;DHT22;23311;48.776;9.162;2022-12-05T15:18:12;6.50;95.50
292;DHT22;23311;48.776;9.162;2022-12-05T15:20:44;6.40;95.50
292;DHT22;23311;48.776;9.162;2022-12-05T15:23:42;6.20;95.50
292;DHT22;23311;48.776;9.162;2022-12-05T15:26:20;6.10;95.50
292;DHT22;23311;48.776;9.162;2022-12-05T15:29:11;5.80;95.50
292;DHT22;23311;48.776;9.162;2022-12-05T15:31:44;5.70;95.50
292;DHT22;23311;48.776;9.162;2022-12-05T15:34:17;5.60;95.50
292;DHT22;23311;48.776;9.162;2022-12-05T15:36:50;5.40;95.50
292;DHT22;23311;48.776;9.162;2022-12-05T15:39:22;5.40;95.50
292;DHT22;23311;48.776;9.162;2022-12-05T15:41:52;5.40;95.50
292;DHT22;23311;48.776;9.162;2022-12-05T15:44:21;5.30;95.50
292;DHT22;23311;48.776;9.162;2022-12-05T15:46:55;5.30;95.50
292;DHT22;23311;48.776;9.162;2022-12-05T15:49:24;5.30;95.50
292;DHT22;23311;48.776;9.162;2022-12-05T15:51:56;5.20;95.50
292;DHT22;23311;48.776;9.162;2022-12-05T15:54:30;5.20;95.50
292;DHT22;23311;48.776;9.162;2022-12-05T15:57:02;5.20;95.50
292;DHT22;23311;48.776;9.162;2022-12-05T15:59:35;5.20;95.50
292;DHT22;23311;48.776;9.162;2022-12-05T16:02:11;5.10;95.50
292;DHT22;23311;48.776;9.162;2022-12-05T16:04:45;5.10;95.50
292;DHT22;23311;48.776;9.162;2022-12-05T16:07:16;5.10;95.50
292;DHT22;23311;48.776;9.162;2022-12-05T16:09:45;5.10;95.50
292;DHT22;23311;48.776;9.162;2022-12-05T16:12:23;5.10;95.50
292;DHT22;23311;48.776;9.162;2022-12-05T16:14:55;5.20;95.50
292;DHT22;23311;48.776;9.162;2022-12-05T16:17:28;5.30;95.50
292;DHT22;23311;48.776;9.162;2022-12-05T16:20:09;5.30;95.50
292;DHT22;23311;48.776;9.162;2022-12-05T16:22:43;5.30;95.50
292;DHT22;23311;48.776;9.162;2022-12-05T16:25:16;5.30;95.50
292;DHT22;23311;48.776;9.162;2022-12-05T16:27:55;5.30;95.50
292;DHT22;23311;48.776;9.162;2022-12-05T16:30:24;5.30;95.50
292;DHT22;23311;48.776;9.162;2022-12-05T16:32:59;5.40;95.50
292;DHT22;23311;48.776;9.162;2022-12-05T16:35:30;5.40;95.50
292;DHT22;23311;48.776;9.162;2022-12-05T16:38:10;5.50;95.50
292;DHT22;23311;48.776;9.162;2022-12-05T16:40:49;5.50;95.50
292;DHT22;23311;48.776;9.162;2022-12-05T16:43:22;5.50;95.50
292;DHT22;23311;48.776;9.162;2022-12-05T16:45:53;5.50;95.50
292;DHT22;23311;48.776;9.162;2022-12-05T16:48:24;5.40;95.50
292;DHT22;23311;48.776;9.162;2022-12-05T16:50:53;5.40;95.50
292;DHT22;23311;48.776;9.162;2022-12-05T16:53:42;5.40;95.50
292;DHT22;23311;48.776;9.162;2022-12-05T16:56:14;5.40;95.50
292;DHT22;23311;48.776;9.162;2022-12-05T16:58:43;5.40;95.50
292;DHT22;23311;48.776;9.162;2022-12-05T17:01:15;5.40;95.50
292;DHT22;23311;48.776;9.162;2022-12-05T17:03:44;5.30;95.50
292;DHT22;23311;48.776;9.162;2022-12-05T17:06:13;5.30;95.50
292;DHT22;23311;48.776;9.162;2022-12-05T17:08:41;5.30;95.50
292;DHT22;23311;48.776;9.162;2022-12-05T17:11:14;5.30;95.50
292;DHT22;23311;48.776;9.162;2022-12-05T17:13:44;5.30;95.50